Terminal Aerodrome Forecast
Issued by NWS Boston, MA

Home | Current Version | Previous Version | Text Only | Print | Product List | Glossary On
Versions: 1 2 3 4 5 6 7 8 9 10 11 12 13 14 15 16 17 18 19 20 21 22 23 24 25 26 27
000
FTUS41 KBOX 191120
TAFBOS
TAF
KBOS 191120Z 1912/2018 19012G22KT 6SM -SHRA BR SCT025 OVC035
     FM191400 21015G30KT P6SM -SHRA OVC020
     FM191600 23016G34KT P6SM VCSH BKN025
     FM191700 26018G36KT P6SM VCSH BKN045
     FM191800 27019G37KT P6SM SCT080
     FM200000 27014G29KT P6SM SKC=

USA.gov is the U.S. government's official web portal to all federal, state and local government web resources and services.